sensor_id;sensor_type;location;lat;lon;timestamp;P1;durP1;ratioP1;P2;durP2;ratioP2
51961;SDS011;37986;51.238;17.128;2022-07-22T00:02:09;6.72;;;5.33;;
51961;SDS011;37986;51.238;17.128;2022-07-22T00:04:35;7.05;;;5.83;;
51961;SDS011;37986;51.238;17.128;2022-07-22T00:07:01;5.95;;;5.35;;
51961;SDS011;37986;51.238;17.128;2022-07-22T00:09:28;6.85;;;5.75;;
51961;SDS011;37986;51.238;17.128;2022-07-22T00:11:54;8.05;;;5.55;;
51961;SDS011;37986;51.238;17.128;2022-07-22T00:14:20;8.65;;;5.47;;
51961;SDS011;37986;51.238;17.128;2022-07-22T00:16:46;8.03;;;5.97;;
51961;SDS011;37986;51.238;17.128;2022-07-22T00:19:12;7.50;;;6.15;;
51961;SDS011;37986;51.238;17.128;2022-07-22T00:21:38;8.03;;;5.67;;
51961;SDS011;37986;51.238;17.128;2022-07-22T00:24:04;6.62;;;5.28;;
51961;SDS011;37986;51.238;17.128;2022-07-22T00:26:30;6.80;;;6.05;;
51961;SDS011;37986;51.238;17.128;2022-07-22T00:28:56;6.50;;;5.75;;
51961;SDS011;37986;51.238;17.128;2022-07-22T00:31:22;8.30;;;5.80;;
51961;SDS011;37986;51.238;17.128;2022-07-22T00:33:48;8.03;;;5.58;;
51961;SDS011;37986;51.238;17.128;2022-07-22T00:36:14;6.12;;;5.53;;
51961;SDS011;37986;51.238;17.128;2022-07-22T00:38:40;10.55;;;5.75;;
51961;SDS011;37986;51.238;17.128;2022-07-22T00:41:06;8.65;;;5.92;;
51961;SDS011;37986;51.238;17.128;2022-07-22T00:46:30;11.90;;;6.00;;
51961;SDS011;37986;51.238;17.128;2022-07-22T00:48:58;9.00;;;6.60;;
51961;SDS011;37986;51.238;17.128;2022-07-22T00:51:25;11.30;;;6.42;;
51961;SDS011;37986;51.238;17.128;2022-07-22T00:53:54;7.45;;;5.60;;
51961;SDS011;37986;51.238;17.128;2022-07-22T00:56:22;8.38;;;6.03;;
51961;SDS011;37986;51.238;17.128;2022-07-22T00:58:49;6.45;;;5.30;;
51961;SDS011;37986;51.238;17.128;2022-07-22T01:01:16;6.78;;;6.08;;
51961;SDS011;37986;51.238;17.128;2022-07-22T01:03:43;7.35;;;5.97;;
51961;SDS011;37986;51.238;17.128;2022-07-22T01:06:09;7.37;;;6.10;;
51961;SDS011;37986;51.238;17.128;2022-07-22T01:08:36;8.10;;;5.92;;
51961;SDS011;37986;51.238;17.128;2022-07-22T01:11:07;8.98;;;6.47;;
51961;SDS011;37986;51.238;17.128;2022-07-22T01:13:39;9.28;;;6.25;;
51961;SDS011;37986;51.238;17.128;2022-07-22T01:16:07;10.30;;;6.85;;
51961;SDS011;37986;51.238;17.128;2022-07-22T01:18:34;10.63;;;7.17;;
51961;SDS011;37986;51.238;17.128;2022-07-22T01:21:01;8.20;;;7.28;;
51961;SDS011;37986;51.238;17.128;2022-07-22T01:23:28;8.28;;;7.20;;
51961;SDS011;37986;51.238;17.128;2022-07-22T01:25:54;12.55;;;7.03;;
51961;SDS011;37986;51.238;17.128;2022-07-22T01:28:20;9.85;;;6.75;;
51961;SDS011;37986;51.238;17.128;2022-07-22T01:30:49;9.43;;;6.47;;
51961;SDS011;37986;51.238;17.128;2022-07-22T01:33:18;7.83;;;7.00;;
51961;SDS011;37986;51.238;17.128;2022-07-22T01:35:45;7.40;;;6.70;;
51961;SDS011;37986;51.238;17.128;2022-07-22T01:38:11;7.55;;;6.65;;
51961;SDS011;37986;51.238;17.128;2022-07-22T01:40:38;11.35;;;6.40;;
51961;SDS011;37986;51.238;17.128;2022-07-22T01:43:06;9.00;;;6.42;;
51961;SDS011;37986;51.238;17.128;2022-07-22T01:45:33;8.20;;;6.53;;
51961;SDS011;37986;51.238;17.128;2022-07-22T01:47:59;9.73;;;6.92;;
51961;SDS011;37986;51.238;17.128;2022-07-22T01:50:26;7.90;;;6.33;;
51961;SDS011;37986;51.238;17.128;2022-07-22T01:52:52;7.42;;;6.67;;
51961;SDS011;37986;51.238;17.128;2022-07-22T01:55:18;9.88;;;7.15;;
51961;SDS011;37986;51.238;17.128;2022-07-22T01:57:44;8.90;;;7.05;;
51961;SDS011;37986;51.238;17.128;2022-07-22T02:00:10;12.15;;;9.40;;
51961;SDS011;37986;51.238;17.128;2022-07-22T02:02:37;13.48;;;8.85;;
51961;SDS011;37986;51.238;17.128;2022-07-22T02:05:04;11.57;;;8.90;;
51961;SDS011;37986;51.238;17.128;2022-07-22T02:07:32;10.20;;;8.55;;
51961;SDS011;37986;51.238;17.128;2022-07-22T02:09:58;11.10;;;7.90;;
51961;SDS011;37986;51.238;17.128;2022-07-22T02:12:24;10.48;;;8.70;;
51961;SDS011;37986;51.238;17.128;2022-07-22T02:14:50;13.03;;;8.90;;
51961;SDS011;37986;51.238;17.128;2022-07-22T02:17:16;13.13;;;9.73;;
51961;SDS011;37986;51.238;17.128;2022-07-22T02:19:42;12.43;;;8.65;;
51961;SDS011;37986;51.238;17.128;2022-07-22T02:22:08;14.38;;;8.98;;
51961;SDS011;37986;51.238;17.128;2022-07-22T02:24:34;8.88;;;7.95;;
51961;SDS011;37986;51.238;17.128;2022-07-22T02:27:00;11.80;;;8.95;;
51961;SDS011;37986;51.238;17.128;2022-07-22T02:29:26;12.73;;;9.48;;
51961;SDS011;37986;51.238;17.128;2022-07-22T02:31:52;11.10;;;8.28;;
51961;SDS011;37986;51.238;17.128;2022-07-22T02:34:19;11.55;;;8.53;;
51961;SDS011;37986;51.238;17.128;2022-07-22T02:36:45;10.15;;;8.45;;
51961;SDS011;37986;51.238;17.128;2022-07-22T02:39:11;9.68;;;8.68;;
51961;SDS011;37986;51.238;17.128;2022-07-22T02:41:37;11.08;;;8.50;;
51961;SDS011;37986;51.238;17.128;2022-07-22T02:44:04;12.68;;;9.38;;
51961;SDS011;37986;51.238;17.128;2022-07-22T02:46:30;13.98;;;9.28;;
51961;SDS011;37986;51.238;17.128;2022-07-22T02:48:56;12.15;;;9.18;;
51961;SDS011;37986;51.238;17.128;2022-07-22T02:51:23;13.72;;;8.85;;
51961;SDS011;37986;51.238;17.128;2022-07-22T02:53:49;8.93;;;7.55;;
51961;SDS011;37986;51.238;17.128;2022-07-22T02:56:15;9.08;;;7.97;;
51961;SDS011;37986;51.238;17.128;2022-07-22T02:58:41;10.65;;;8.15;;
51961;SDS011;37986;51.238;17.128;2022-07-22T03:01:07;13.08;;;9.03;;
51961;SDS011;37986;51.238;17.128;2022-07-22T03:03:34;10.20;;;7.37;;
51961;SDS011;37986;51.238;17.128;2022-07-22T03:06:00;11.50;;;7.85;;
51961;SDS011;37986;51.238;17.128;2022-07-22T03:08:26;9.28;;;7.78;;
51961;SDS011;37986;51.238;17.128;2022-07-22T03:10:52;12.00;;;7.62;;
51961;SDS011;37986;51.238;17.128;2022-07-22T03:13:18;20.05;;;9.93;;
51961;SDS011;37986;51.238;17.128;2022-07-22T03:15:44;25.08;;;10.85;;
51961;SDS011;37986;51.238;17.128;2022-07-22T03:18:10;17.62;;;10.45;;
51961;SDS011;37986;51.238;17.128;2022-07-22T03:20:36;13.48;;;9.35;;
51961;SDS011;37986;51.238;17.128;2022-07-22T03:23:02;14.25;;;9.75;;
51961;SDS011;37986;51.238;17.128;2022-07-22T03:25:28;12.73;;;9.60;;
51961;SDS011;37986;51.238;17.128;2022-07-22T03:27:56;18.10;;;10.60;;
51961;SDS011;37986;51.238;17.128;2022-07-22T03:30:22;19.07;;;11.22;;
51961;SDS011;37986;51.238;17.128;2022-07-22T03:32:48;14.93;;;10.80;;
51961;SDS011;37986;51.238;17.128;2022-07-22T03:35:15;14.83;;;10.82;;
51961;SDS011;37986;51.238;17.128;2022-07-22T03:37:41;15.08;;;11.03;;
51961;SDS011;37986;51.238;17.128;2022-07-22T03:40:09;19.02;;;11.75;;
51961;SDS011;37986;51.238;17.128;2022-07-22T03:42:36;15.30;;;11.38;;
51961;SDS011;37986;51.238;17.128;2022-07-22T03:45:02;16.85;;;10.98;;
51961;SDS011;37986;51.238;17.128;2022-07-22T03:47:29;15.58;;;12.58;;
51961;SDS011;37986;51.238;17.128;2022-07-22T03:49:54;16.02;;;13.22;;
51961;SDS011;37986;51.238;17.128;2022-07-22T03:52:22;20.35;;;13.45;;
51961;SDS011;37986;51.238;17.128;2022-07-22T03:54:48;20.72;;;15.35;;
51961;SDS011;37986;51.238;17.128;2022-07-22T03:57:14;20.05;;;14.83;;
51961;SDS011;37986;51.238;17.128;2022-07-22T03:59:40;21.87;;;13.65;;
51961;SDS011;37986;51.238;17.128;2022-07-22T04:02:06;18.70;;;12.95;;
51961;SDS011;37986;51.238;17.128;2022-07-22T04:04:31;17.70;;;13.08;;
51961;SDS011;37986;51.238;17.128;2022-07-22T04:06:57;16.90;;;12.18;;
51961;SDS011;37986;51.238;17.128;2022-07-22T04:09:23;19.35;;;13.35;;
51961;SDS011;37986;51.238;17.128;2022-07-22T04:11:49;14.15;;;11.85;;
51961;SDS011;37986;51.238;17.128;2022-07-22T04:14:16;15.25;;;11.85;;
51961;SDS011;37986;51.238;17.128;2022-07-22T04:16:42;15.00;;;12.78;;
51961;SDS011;37986;51.238;17.128;2022-07-22T04:19:11;16.90;;;12.60;;
51961;SDS011;37986;51.238;17.128;2022-07-22T04:21:38;17.90;;;12.45;;
51961;SDS011;37986;51.238;17.128;2022-07-22T04:24:04;18.12;;;12.43;;
51961;SDS011;37986;51.238;17.128;2022-07-22T04:26:30;19.23;;;13.35;;
51961;SDS011;37986;51.238;17.128;2022-07-22T04:28:56;17.00;;;13.22;;
51961;SDS011;37986;51.238;17.128;2022-07-22T04:31:22;18.17;;;14.00;;
51961;SDS011;37986;51.238;17.128;2022-07-22T04:33:48;14.18;;;12.00;;
51961;SDS011;37986;51.238;17.128;2022-07-22T04:36:14;14.95;;;13.10;;
51961;SDS011;37986;51.238;17.128;2022-07-22T04:38:40;15.58;;;12.68;;
51961;SDS011;37986;51.238;17.128;2022-07-22T04:41:06;14.95;;;11.60;;
51961;SDS011;37986;51.238;17.128;2022-07-22T04:43:32;13.48;;;11.70;;
51961;SDS011;37986;51.238;17.128;2022-07-22T04:45:58;14.45;;;11.50;;
51961;SDS011;37986;51.238;17.128;2022-07-22T04:48:24;17.37;;;11.30;;
51961;SDS011;37986;51.238;17.128;2022-07-22T04:50:49;13.40;;;12.00;;
51961;SDS011;37986;51.238;17.128;2022-07-22T04:53:15;15.93;;;11.70;;
51961;SDS011;37986;51.238;17.128;2022-07-22T04:55:41;16.42;;;12.03;;
51961;SDS011;37986;51.238;17.128;2022-07-22T04:58:07;13.95;;;12.15;;
51961;SDS011;37986;51.238;17.128;2022-07-22T05:00:33;15.88;;;11.97;;
51961;SDS011;37986;51.238;17.128;2022-07-22T05:02:59;13.43;;;12.13;;
51961;SDS011;37986;51.238;17.128;2022-07-22T05:05:26;13.68;;;11.90;;
51961;SDS011;37986;51.238;17.128;2022-07-22T05:07:51;15.98;;;11.93;;
51961;SDS011;37986;51.238;17.128;2022-07-22T05:10:17;13.95;;;12.50;;
51961;SDS011;37986;51.238;17.128;2022-07-22T05:12:43;13.05;;;11.75;;
51961;SDS011;37986;51.238;17.128;2022-07-22T05:15:09;14.83;;;10.60;;
51961;SDS011;37986;51.238;17.128;2022-07-22T05:17:35;13.18;;;11.12;;
51961;SDS011;37986;51.238;17.128;2022-07-22T05:20:02;13.50;;;11.08;;
51961;SDS011;37986;51.238;17.128;2022-07-22T05:22:29;12.50;;;10.55;;
51961;SDS011;37986;51.238;17.128;2022-07-22T05:24:55;11.20;;;9.53;;
51961;SDS011;37986;51.238;17.128;2022-07-22T05:27:21;13.45;;;9.65;;
51961;SDS011;37986;51.238;17.128;2022-07-22T05:29:47;11.85;;;10.25;;
51961;SDS011;37986;51.238;17.128;2022-07-22T05:32:13;13.53;;;9.10;;
51961;SDS011;37986;51.238;17.128;2022-07-22T05:34:40;10.60;;;8.88;;
51961;SDS011;37986;51.238;17.128;2022-07-22T05:37:06;10.95;;;8.95;;
51961;SDS011;37986;51.238;17.128;2022-07-22T05:39:32;10.55;;;7.87;;
51961;SDS011;37986;51.238;17.128;2022-07-22T05:41:58;13.13;;;9.33;;
51961;SDS011;37986;51.238;17.128;2022-07-22T05:44:24;11.30;;;8.98;;
51961;SDS011;37986;51.238;17.128;2022-07-22T05:46:50;10.85;;;9.40;;
51961;SDS011;37986;51.238;17.128;2022-07-22T05:49:15;9.83;;;8.83;;
51961;SDS011;37986;51.238;17.128;2022-07-22T05:51:41;8.80;;;7.67;;
51961;SDS011;37986;51.238;17.128;2022-07-22T05:54:07;8.40;;;7.65;;
51961;SDS011;37986;51.238;17.128;2022-07-22T05:56:33;11.30;;;8.55;;
51961;SDS011;37986;51.238;17.128;2022-07-22T05:58:59;9.20;;;8.20;;
51961;SDS011;37986;51.238;17.128;2022-07-22T06:01:25;9.03;;;7.90;;
51961;SDS011;37986;51.238;17.128;2022-07-22T06:03:51;8.68;;;7.78;;
51961;SDS011;37986;51.238;17.128;2022-07-22T06:06:17;8.53;;;7.80;;
51961;SDS011;37986;51.238;17.128;2022-07-22T06:08:43;9.18;;;8.38;;
51961;SDS011;37986;51.238;17.128;2022-07-22T06:11:09;13.38;;;8.23;;
51961;SDS011;37986;51.238;17.128;2022-07-22T06:13:34;9.35;;;7.95;;
51961;SDS011;37986;51.238;17.128;2022-07-22T06:16:01;9.73;;;8.73;;
51961;SDS011;37986;51.238;17.128;2022-07-22T06:18:27;11.15;;;8.93;;
51961;SDS011;37986;51.238;17.128;2022-07-22T06:20:52;13.18;;;8.75;;
51961;SDS011;37986;51.238;17.128;2022-07-22T06:23:18;10.68;;;8.83;;
51961;SDS011;37986;51.238;17.128;2022-07-22T06:25:44;8.68;;;7.78;;
51961;SDS011;37986;51.238;17.128;2022-07-22T06:28:10;10.88;;;8.88;;
51961;SDS011;37986;51.238;17.128;2022-07-22T06:30:36;10.32;;;9.30;;
51961;SDS011;37986;51.238;17.128;2022-07-22T06:33:04;10.80;;;9.70;;
51961;SDS011;37986;51.238;17.128;2022-07-22T06:35:30;11.18;;;9.73;;
51961;SDS011;37986;51.238;17.128;2022-07-22T06:37:56;10.38;;;9.23;;
51961;SDS011;37986;51.238;17.128;2022-07-22T06:40:21;10.78;;;9.68;;
51961;SDS011;37986;51.238;17.128;2022-07-22T06:42:47;11.38;;;10.05;;
51961;SDS011;37986;51.238;17.128;2022-07-22T06:45:13;10.80;;;9.70;;
51961;SDS011;37986;51.238;17.128;2022-07-22T06:47:39;10.05;;;8.85;;
51961;SDS011;37986;51.238;17.128;2022-07-22T06:50:05;11.63;;;9.30;;
51961;SDS011;37986;51.238;17.128;2022-07-22T06:52:33;11.30;;;10.13;;
51961;SDS011;37986;51.238;17.128;2022-07-22T06:54:59;10.08;;;9.13;;
51961;SDS011;37986;51.238;17.128;2022-07-22T06:57:25;10.32;;;9.25;;
51961;SDS011;37986;51.238;17.128;2022-07-22T06:59:51;14.35;;;9.73;;
51961;SDS011;37986;51.238;17.128;2022-07-22T07:02:16;10.65;;;8.80;;
51961;SDS011;37986;51.238;17.128;2022-07-22T07:04:42;11.10;;;9.25;;
51961;SDS011;37986;51.238;17.128;2022-07-22T07:07:08;10.05;;;8.88;;
51961;SDS011;37986;51.238;17.128;2022-07-22T07:09:34;10.00;;;9.10;;
51961;SDS011;37986;51.238;17.128;2022-07-22T07:12:00;10.13;;;9.13;;
51961;SDS011;37986;51.238;17.128;2022-07-22T07:14:27;9.50;;;8.05;;
51961;SDS011;37986;51.238;17.128;2022-07-22T07:16:52;10.03;;;8.80;;
51961;SDS011;37986;51.238;17.128;2022-07-22T07:19:18;9.85;;;8.85;;
51961;SDS011;37986;51.238;17.128;2022-07-22T07:21:45;9.75;;;8.83;;
51961;SDS011;37986;51.238;17.128;2022-07-22T07:24:11;9.73;;;8.93;;
51961;SDS011;37986;51.238;17.128;2022-07-22T07:26:37;10.53;;;9.45;;
51961;SDS011;37986;51.238;17.128;2022-07-22T07:29:04;10.58;;;9.23;;
51961;SDS011;37986;51.238;17.128;2022-07-22T07:31:30;10.38;;;9.38;;
51961;SDS011;37986;51.238;17.128;2022-07-22T07:33:57;11.60;;;8.60;;
51961;SDS011;37986;51.238;17.128;2022-07-22T07:36:23;9.73;;;8.73;;
51961;SDS011;37986;51.238;17.128;2022-07-22T07:38:49;10.75;;;8.90;;
51961;SDS011;37986;51.238;17.128;2022-07-22T07:41:16;9.03;;;7.90;;
51961;SDS011;37986;51.238;17.128;2022-07-22T07:43:43;9.30;;;8.40;;
51961;SDS011;37986;51.238;17.128;2022-07-22T07:46:09;9.43;;;8.53;;
51961;SDS011;37986;51.238;17.128;2022-07-22T07:48:35;12.63;;;9.20;;
51961;SDS011;37986;51.238;17.128;2022-07-22T07:51:01;10.90;;;9.20;;
51961;SDS011;37986;51.238;17.128;2022-07-22T07:53:27;9.10;;;8.20;;
51961;SDS011;37986;51.238;17.128;2022-07-22T07:55:53;10.72;;;8.70;;
51961;SDS011;37986;51.238;17.128;2022-07-22T07:58:19;9.35;;;8.45;;
51961;SDS011;37986;51.238;17.128;2022-07-22T08:00:45;10.43;;;9.33;;
51961;SDS011;37986;51.238;17.128;2022-07-22T08:03:11;9.40;;;8.48;;
51961;SDS011;37986;51.238;17.128;2022-07-22T08:05:37;11.83;;;9.15;;
51961;SDS011;37986;51.238;17.128;2022-07-22T08:08:07;9.65;;;8.85;;
51961;SDS011;37986;51.238;17.128;2022-07-22T08:10:34;12.35;;;8.65;;
51961;SDS011;37986;51.238;17.128;2022-07-22T08:13:00;9.58;;;8.63;;
51961;SDS011;37986;51.238;17.128;2022-07-22T08:15:28;9.88;;;8.40;;
51961;SDS011;37986;51.238;17.128;2022-07-22T08:17:55;10.30;;;8.83;;
51961;SDS011;37986;51.238;17.128;2022-07-22T08:20:23;9.70;;;8.80;;
51961;SDS011;37986;51.238;17.128;2022-07-22T08:22:51;10.53;;;9.53;;
51961;SDS011;37986;51.238;17.128;2022-07-22T08:25:18;14.18;;;9.50;;
51961;SDS011;37986;51.238;17.128;2022-07-22T08:27:44;10.05;;;9.05;;
51961;SDS011;37986;51.238;17.128;2022-07-22T08:30:10;10.68;;;8.95;;
51961;SDS011;37986;51.238;17.128;2022-07-22T08:32:37;13.43;;;10.75;;
51961;SDS011;37986;51.238;17.128;2022-07-22T08:35:03;11.40;;;9.38;;
51961;SDS011;37986;51.238;17.128;2022-07-22T08:37:30;11.78;;;10.53;;
51961;SDS011;37986;51.238;17.128;2022-07-22T08:39:57;12.55;;;10.15;;
51961;SDS011;37986;51.238;17.128;2022-07-22T08:42:24;12.47;;;11.03;;
51961;SDS011;37986;51.238;17.128;2022-07-22T08:44:50;11.83;;;10.72;;
51961;SDS011;37986;51.238;17.128;2022-07-22T08:47:21;13.22;;;11.12;;
51961;SDS011;37986;51.238;17.128;2022-07-22T08:49:49;18.10;;;11.53;;
51961;SDS011;37986;51.238;17.128;2022-07-22T08:52:16;12.88;;;11.15;;
51961;SDS011;37986;51.238;17.128;2022-07-22T08:54:42;12.50;;;11.03;;
51961;SDS011;37986;51.238;17.128;2022-07-22T08:57:08;12.50;;;10.45;;
51961;SDS011;37986;51.238;17.128;2022-07-22T08:59:48;14.25;;;11.75;;
51961;SDS011;37986;51.238;17.128;2022-07-22T09:02:19;15.30;;;11.95;;
51961;SDS011;37986;51.238;17.128;2022-07-22T09:10:02;10.98;;;9.93;;
51961;SDS011;37986;51.238;17.128;2022-07-22T09:12:58;14.93;;;10.93;;
51961;SDS011;37986;51.238;17.128;2022-07-22T09:15:25;13.30;;;9.90;;
51961;SDS011;37986;51.238;17.128;2022-07-22T09:17:56;17.10;;;11.45;;
51961;SDS011;37986;51.238;17.128;2022-07-22T09:20:24;11.03;;;9.93;;
51961;SDS011;37986;51.238;17.128;2022-07-22T09:22:52;15.03;;;11.38;;
51961;SDS011;37986;51.238;17.128;2022-07-22T09:30:38;12.93;;;10.28;;
51961;SDS011;37986;51.238;17.128;2022-07-22T09:33:08;10.50;;;9.40;;
51961;SDS011;37986;51.238;17.128;2022-07-22T09:35:36;11.85;;;9.50;;
51961;SDS011;37986;51.238;17.128;2022-07-22T09:38:06;9.83;;;8.93;;
51961;SDS011;37986;51.238;17.128;2022-07-22T09:40:36;9.58;;;8.68;;
51961;SDS011;37986;51.238;17.128;2022-07-22T09:43:09;9.63;;;8.18;;
51961;SDS011;37986;51.238;17.128;2022-07-22T09:45:53;10.30;;;9.10;;
51961;SDS011;37986;51.238;17.128;2022-07-22T09:48:25;10.50;;;8.13;;
51961;SDS011;37986;51.238;17.128;2022-07-22T09:50:54;11.75;;;9.03;;
51961;SDS011;37986;51.238;17.128;2022-07-22T09:53:25;9.35;;;8.45;;
51961;SDS011;37986;51.238;17.128;2022-07-22T09:55:54;9.70;;;8.38;;
51961;SDS011;37986;51.238;17.128;2022-07-22T09:58:22;8.98;;;8.08;;
51961;SDS011;37986;51.238;17.128;2022-07-22T10:00:49;7.37;;;6.67;;
51961;SDS011;37986;51.238;17.128;2022-07-22T10:03:17;7.33;;;6.42;;
51961;SDS011;37986;51.238;17.128;2022-07-22T10:05:52;7.97;;;6.00;;
51961;SDS011;37986;51.238;17.128;2022-07-22T10:08:20;7.65;;;6.40;;
51961;SDS011;37986;51.238;17.128;2022-07-22T10:10:47;8.75;;;6.15;;
51961;SDS011;37986;51.238;17.128;2022-07-22T10:13:14;6.55;;;5.33;;
51961;SDS011;37986;51.238;17.128;2022-07-22T10:15:44;6.12;;;4.70;;
51961;SDS011;37986;51.238;17.128;2022-07-22T10:18:17;5.42;;;4.70;;
51961;SDS011;37986;51.238;17.128;2022-07-22T10:20:52;4.75;;;4.33;;
51961;SDS011;37986;51.238;17.128;2022-07-22T10:23:31;6.45;;;4.62;;
51961;SDS011;37986;51.238;17.128;2022-07-22T10:25:59;7.22;;;5.05;;
51961;SDS011;37986;51.238;17.128;2022-07-22T10:28:28;6.83;;;5.20;;
51961;SDS011;37986;51.238;17.128;2022-07-22T10:33:48;5.28;;;4.78;;
51961;SDS011;37986;51.238;17.128;2022-07-22T10:36:34;6.62;;;5.50;;
51961;SDS011;37986;51.238;17.128;2022-07-22T10:39:09;5.87;;;4.83;;
51961;SDS011;37986;51.238;17.128;2022-07-22T10:41:41;6.28;;;5.70;;
51961;SDS011;37986;51.238;17.128;2022-07-22T10:44:11;5.78;;;5.22;;
51961;SDS011;37986;51.238;17.128;2022-07-22T10:49:21;5.70;;;5.12;;
51961;SDS011;37986;51.238;17.128;2022-07-22T10:52:09;6.45;;;5.30;;
51961;SDS011;37986;51.238;17.128;2022-07-22T10:57:44;6.87;;;5.35;;
51961;SDS011;37986;51.238;17.128;2022-07-22T11:00:10;6.47;;;5.92;;
51961;SDS011;37986;51.238;17.128;2022-07-22T11:02:36;6.80;;;5.50;;
51961;SDS011;37986;51.238;17.128;2022-07-22T11:05:03;6.47;;;5.65;;
51961;SDS011;37986;51.238;17.128;2022-07-22T11:07:30;7.33;;;5.70;;
51961;SDS011;37986;51.238;17.128;2022-07-22T11:10:11;6.83;;;6.00;;
51961;SDS011;37986;51.238;17.128;2022-07-22T11:12:40;6.03;;;5.47;;
51961;SDS011;37986;51.238;17.128;2022-07-22T11:15:07;6.83;;;5.35;;
51961;SDS011;37986;51.238;17.128;2022-07-22T11:17:35;8.00;;;5.28;;
51961;SDS011;37986;51.238;17.128;2022-07-22T11:20:03;6.75;;;5.12;;
51961;SDS011;37986;51.238;17.128;2022-07-22T11:22:33;5.13;;;4.50;;
51961;SDS011;37986;51.238;17.128;2022-07-22T11:25:00;5.00;;;4.50;;
51961;SDS011;37986;51.238;17.128;2022-07-22T11:27:30;4.92;;;4.17;;
51961;SDS011;37986;51.238;17.128;2022-07-22T11:29:56;4.28;;;3.85;;
51961;SDS011;37986;51.238;17.128;2022-07-22T11:32:24;4.35;;;3.80;;
51961;SDS011;37986;51.238;17.128;2022-07-22T11:37:20;6.22;;;4.42;;
51961;SDS011;37986;51.238;17.128;2022-07-22T11:39:48;5.80;;;4.28;;
51961;SDS011;37986;51.238;17.128;2022-07-22T11:42:15;4.78;;;4.40;;
51961;SDS011;37986;51.238;17.128;2022-07-22T11:44:41;5.17;;;4.42;;
51961;SDS011;37986;51.238;17.128;2022-07-22T11:47:07;6.40;;;4.60;;
51961;SDS011;37986;51.238;17.128;2022-07-22T11:49:35;6.95;;;4.50;;
51961;SDS011;37986;51.238;17.128;2022-07-22T11:52:07;4.60;;;4.15;;
51961;SDS011;37986;51.238;17.128;2022-07-22T11:54:37;4.33;;;3.90;;
51961;SDS011;37986;51.238;17.128;2022-07-22T11:57:06;4.15;;;3.40;;
51961;SDS011;37986;51.238;17.128;2022-07-22T11:59:33;6.58;;;3.80;;
51961;SDS011;37986;51.238;17.128;2022-07-22T12:02:00;4.47;;;3.17;;
51961;SDS011;37986;51.238;17.128;2022-07-22T12:04:29;5.67;;;3.70;;
51961;SDS011;37986;51.238;17.128;2022-07-22T12:06:57;8.60;;;4.08;;
51961;SDS011;37986;51.238;17.128;2022-07-22T12:09:32;4.17;;;3.85;;
51961;SDS011;37986;51.238;17.128;2022-07-22T12:12:00;3.77;;;3.47;;
51961;SDS011;37986;51.238;17.128;2022-07-22T12:14:28;5.22;;;3.47;;
51961;SDS011;37986;51.238;17.128;2022-07-22T12:19:35;4.12;;;3.72;;
51961;SDS011;37986;51.238;17.128;2022-07-22T12:24:35;4.28;;;3.42;;
51961;SDS011;37986;51.238;17.128;2022-07-22T12:27:05;5.97;;;3.72;;
51961;SDS011;37986;51.238;17.128;2022-07-22T12:32:14;3.62;;;3.33;;
51961;SDS011;37986;51.238;17.128;2022-07-22T12:34:43;3.83;;;3.42;;
51961;SDS011;37986;51.238;17.128;2022-07-22T12:37:13;4.12;;;3.70;;
51961;SDS011;37986;51.238;17.128;2022-07-22T12:40:01;5.85;;;4.15;;
51961;SDS011;37986;51.238;17.128;2022-07-22T12:42:32;5.10;;;3.95;;
51961;SDS011;37986;51.238;17.128;2022-07-22T12:45:14;4.92;;;4.30;;
51961;SDS011;37986;51.238;17.128;2022-07-22T12:50:39;5.92;;;3.60;;
51961;SDS011;37986;51.238;17.128;2022-07-22T12:53:12;4.47;;;3.87;;
51961;SDS011;37986;51.238;17.128;2022-07-22T12:55:42;3.80;;;3.37;;
51961;SDS011;37986;51.238;17.128;2022-07-22T12:58:16;3.90;;;3.60;;
51961;SDS011;37986;51.238;17.128;2022-07-22T13:00:43;4.87;;;3.87;;
51961;SDS011;37986;51.238;17.128;2022-07-22T13:03:15;7.00;;;4.12;;
51961;SDS011;37986;51.238;17.128;2022-07-22T13:05:44;4.67;;;4.15;;
51961;SDS011;37986;51.238;17.128;2022-07-22T13:08:14;4.58;;;3.70;;
51961;SDS011;37986;51.238;17.128;2022-07-22T13:10:40;5.20;;;3.90;;
51961;SDS011;37986;51.238;17.128;2022-07-22T13:13:06;4.00;;;3.60;;
51961;SDS011;37986;51.238;17.128;2022-07-22T13:15:32;3.77;;;3.45;;
51961;SDS011;37986;51.238;17.128;2022-07-22T13:17:58;4.10;;;3.70;;
51961;SDS011;37986;51.238;17.128;2022-07-22T13:20:23;3.80;;;3.50;;
51961;SDS011;37986;51.238;17.128;2022-07-22T13:22:49;7.70;;;3.70;;
51961;SDS011;37986;51.238;17.128;2022-07-22T13:25:15;4.12;;;3.72;;
51961;SDS011;37986;51.238;17.128;2022-07-22T13:27:41;7.25;;;3.98;;
51961;SDS011;37986;51.238;17.128;2022-07-22T13:30:08;9.88;;;4.17;;
51961;SDS011;37986;51.238;17.128;2022-07-22T13:32:35;4.22;;;3.83;;
51961;SDS011;37986;51.238;17.128;2022-07-22T13:35:01;5.45;;;4.25;;
51961;SDS011;37986;51.238;17.128;2022-07-22T13:37:27;5.72;;;3.50;;
51961;SDS011;37986;51.238;17.128;2022-07-22T13:39:54;4.37;;;3.58;;
51961;SDS011;37986;51.238;17.128;2022-07-22T13:42:19;3.90;;;3.60;;
51961;SDS011;37986;51.238;17.128;2022-07-22T13:44:46;4.22;;;3.92;;
51961;SDS011;37986;51.238;17.128;2022-07-22T13:47:13;4.50;;;4.05;;
51961;SDS011;37986;51.238;17.128;2022-07-22T13:49:40;4.40;;;4.00;;
51961;SDS011;37986;51.238;17.128;2022-07-22T13:52:06;4.75;;;4.05;;
51961;SDS011;37986;51.238;17.128;2022-07-22T13:54:33;4.28;;;3.50;;
51961;SDS011;37986;51.238;17.128;2022-07-22T13:56:59;3.62;;;3.33;;
51961;SDS011;37986;51.238;17.128;2022-07-22T13:59:26;5.25;;;4.05;;
51961;SDS011;37986;51.238;17.128;2022-07-22T14:01:54;4.72;;;3.67;;
51961;SDS011;37986;51.238;17.128;2022-07-22T14:04:20;4.37;;;3.98;;
51961;SDS011;37986;51.238;17.128;2022-07-22T14:06:46;4.35;;;3.72;;
51961;SDS011;37986;51.238;17.128;2022-07-22T14:09:12;4.83;;;4.15;;
51961;SDS011;37986;51.238;17.128;2022-07-22T14:11:38;6.08;;;3.33;;
51961;SDS011;37986;51.238;17.128;2022-07-22T14:14:03;4.17;;;3.77;;
51961;SDS011;37986;51.238;17.128;2022-07-22T14:16:31;5.42;;;3.65;;
51961;SDS011;37986;51.238;17.128;2022-07-22T14:19:02;8.00;;;4.25;;
51961;SDS011;37986;51.238;17.128;2022-07-22T14:21:38;5.83;;;4.10;;
51961;SDS011;37986;51.238;17.128;2022-07-22T14:24:07;6.58;;;4.28;;
51961;SDS011;37986;51.238;17.128;2022-07-22T14:26:34;10.30;;;3.95;;
51961;SDS011;37986;51.238;17.128;2022-07-22T14:29:01;5.20;;;3.98;;
51961;SDS011;37986;51.238;17.128;2022-07-22T14:31:28;4.65;;;4.25;;
51961;SDS011;37986;51.238;17.128;2022-07-22T14:33:55;9.48;;;4.20;;
51961;SDS011;37986;51.238;17.128;2022-07-22T14:36:21;4.20;;;3.80;;
51961;SDS011;37986;51.238;17.128;2022-07-22T14:38:47;5.10;;;4.10;;
51961;SDS011;37986;51.238;17.128;2022-07-22T14:41:15;4.37;;;3.95;;
51961;SDS011;37986;51.238;17.128;2022-07-22T14:43:42;5.75;;;3.80;;
51961;SDS011;37986;51.238;17.128;2022-07-22T14:46:08;4.15;;;3.85;;
51961;SDS011;37986;51.238;17.128;2022-07-22T14:48:35;7.42;;;4.53;;
51961;SDS011;37986;51.238;17.128;2022-07-22T14:51:03;4.25;;;3.72;;
51961;SDS011;37986;51.238;17.128;2022-07-22T14:53:29;6.40;;;4.22;;
51961;SDS011;37986;51.238;17.128;2022-07-22T14:55:55;7.70;;;3.70;;
51961;SDS011;37986;51.238;17.128;2022-07-22T14:58:21;5.95;;;4.25;;
51961;SDS011;37986;51.238;17.128;2022-07-22T15:00:47;5.37;;;4.42;;
51961;SDS011;37986;51.238;17.128;2022-07-22T15:03:13;8.40;;;4.67;;